Time;durP1;ratioP1;P1;durP2;ratioP2;P2;SDS_P1;SDS_P2;PMS_P1;PMS_P2;Temp;Humidity;BMP_temperature;BMP_pressure;BME280_temperature;BME280_humidity;BME280_pressure;Samples;Min_cycle;Max_cycle;Signal;HPM_P1;HPM_P2
2021/11/03 00:00:16;;;;;;;4.10;2.10;;;;;;;20.56;42.01;99990.06;5074278;28;20048;-60
2021/11/03 00:02:42;;;;;;;3.80;2.00;;;;;;;20.54;42.11;99993.88;5073577;28;20036;-59
2021/11/03 00:05:11;;;;;;;3.97;2.05;;;;;;;20.50;42.12;99993.34;5073999;28;20525;-59
2021/11/03 00:07:36;;;;;;;3.72;2.10;;;;;;;20.47;41.85;99998.94;5074581;28;20385;-59
2021/11/03 00:10:05;;;;;;;4.03;2.20;;;;;;;20.42;42.12;99993.31;5073100;28;20088;-59
2021/11/03 00:12:31;;;;;;;3.28;1.90;;;;;;;20.41;42.08;99991.66;5074558;28;20021;-60
2021/11/03 00:15:00;;;;;;;4.47;2.03;;;;;;;20.39;41.96;99988.34;5074248;28;20067;-60
2021/11/03 00:17:26;;;;;;;4.50;2.30;;;;;;;20.35;41.93;99993.13;5074232;28;20032;-60
2021/11/03 00:19:52;;;;;;;3.80;2.10;;;;;;;20.33;42.07;99989.81;5074295;28;20028;-60
2021/11/03 00:22:20;;;;;;;4.18;2.28;;;;;;;20.31;41.91;99991.78;5072960;28;20016;-58
2021/11/03 00:24:46;;;;;;;4.05;2.17;;;;;;;20.28;42.02;99987.66;5073992;28;20059;-60
2021/11/03 00:27:12;;;;;;;4.10;2.05;;;;;;;20.25;42.44;99992.41;5074040;28;20435;-60
2021/11/03 00:29:38;;;;;;;6.75;3.95;;;;;;;20.22;42.00;99990.09;5073271;28;20495;-60
2021/11/03 00:32:04;;;;;;;4.00;2.38;;;;;;;20.18;42.03;99989.59;5073875;28;20120;-60
2021/11/03 00:34:30;;;;;;;3.95;2.10;;;;;;;20.16;41.99;99991.56;5073830;28;20028;-59
2021/11/03 00:36:55;;;;;;;4.85;2.50;;;;;;;20.14;42.02;99990.91;5072923;28;20025;-59
2021/11/03 00:39:22;;;;;;;4.40;2.20;;;;;;;20.13;42.03;99996.34;5073418;28;20108;-60
2021/11/03 00:41:49;;;;;;;4.50;2.20;;;;;;;20.10;42.02;99987.72;5073658;28;20771;-59
2021/11/03 00:44:14;;;;;;;4.05;2.05;;;;;;;20.09;42.00;99991.38;5072584;28;20036;-60
2021/11/03 00:46:39;;;;;;;4.90;2.30;;;;;;;20.09;41.99;99993.19;5073948;28;20036;-60
2021/11/03 00:49:05;;;;;;;3.83;2.10;;;;;;;20.04;42.11;99987.53;5073466;28;20025;-60
2021/11/03 00:51:30;;;;;;;4.00;1.90;;;;;;;20.02;41.98;99990.34;5072824;28;20392;-60
2021/11/03 00:53:56;;;;;;;4.20;2.35;;;;;;;20.01;41.91;99986.06;5073051;28;20028;-60
2021/11/03 00:56:21;;;;;;;3.92;2.28;;;;;;;19.99;42.02;99979.25;5073218;28;20056;-59
2021/11/03 00:58:46;;;;;;;4.05;2.40;;;;;;;19.97;41.86;99983.88;5072943;28;20396;-59
2021/11/03 01:01:12;;;;;;;4.75;2.78;;;;;;;19.94;41.97;99979.72;5073058;28;20459;-60
2021/11/03 01:03:37;;;;;;;4.30;2.50;;;;;;;19.92;41.74;99974.59;5073531;28;20057;-60
2021/11/03 01:06:03;;;;;;;4.25;2.40;;;;;;;19.90;41.95;99976.56;5072697;28;20805;-60
2021/11/03 01:08:28;;;;;;;4.10;2.42;;;;;;;19.88;41.92;99978.53;5073119;28;20024;-60
2021/11/03 01:10:53;;;;;;;4.37;2.53;;;;;;;19.85;42.00;99970.09;5073174;28;20020;-59
2021/11/03 01:13:21;;;;;;;5.63;2.63;;;;;;;19.84;42.02;99971.91;5071900;28;20281;-60
2021/11/03 01:15:46;;;;;;;5.03;2.80;;;;;;;19.83;41.86;99972.06;5073029;28;20048;-59
2021/11/03 01:18:13;;;;;;;4.80;2.53;;;;;;;19.81;42.01;99968.75;5072658;28;20100;-59
2021/11/03 01:20:39;;;;;;;4.30;2.40;;;;;;;19.81;42.00;99974.03;5072147;28;20062;-60
2021/11/03 01:23:07;;;;;;;4.35;2.47;;;;;;;19.79;41.82;99968.91;5072828;28;20032;-60
2021/11/03 01:25:33;;;;;;;4.07;2.42;;;;;;;19.79;41.89;99974.19;5072099;28;20032;-60
2021/11/03 01:27:58;;;;;;;4.43;2.60;;;;;;;19.77;41.56;99962.94;5072308;28;20035;-60
2021/11/03 01:30:25;;;;;;;5.95;2.78;;;;;;;19.75;41.86;99962.22;5072987;28;20037;-60
2021/11/03 01:32:52;;;;;;;4.47;2.60;;;;;;;19.75;41.83;99967.53;5070760;28;20016;-60
2021/11/03 01:35:18;;;;;;;4.22;2.55;;;;;;;19.72;41.62;99962.53;5072029;28;20464;-59
2021/11/03 01:37:43;;;;;;;4.55;2.60;;;;;;;19.71;41.89;99963.53;5072238;28;20025;-59
2021/11/03 01:40:16;;;;;;;4.40;2.33;;;;;;;19.69;41.73;99960.22;5070915;28;20052;-60
2021/11/03 01:42:42;;;;;;;5.28;2.75;;;;;;;19.68;41.51;99966.50;5072599;28;20032;-60
2021/11/03 01:45:10;;;;;;;4.10;2.30;;;;;;;19.67;41.44;99959.53;5071659;28;20032;-59
2021/11/03 01:47:45;;;;;;;4.10;2.40;;;;;;;19.66;41.75;99965.81;5071544;28;20029;-59
2021/11/03 01:50:25;;;;;;;4.40;2.45;;;;;;;19.65;41.45;99966.81;5071807;28;20321;-60
2021/11/03 01:53:00;;;;;;;4.80;2.33;;;;;;;19.64;41.46;99970.44;5072347;28;20033;-59
2021/11/03 01:55:28;;;;;;;4.00;2.15;;;;;;;19.63;41.51;99966.97;5071265;28;20036;-59
2021/11/03 01:57:59;;;;;;;4.22;2.10;;;;;;;19.62;41.36;99961.84;5072036;28;20056;-61
2021/11/03 02:00:31;;;;;;;5.18;2.80;;;;;;;19.60;41.42;99955.84;5071866;28;20040;-59
2021/11/03 02:03:04;;;;;;;4.40;2.45;;;;;;;19.57;41.52;99949.91;5071782;28;20024;-59
2021/11/03 02:05:30;;;;;;;3.85;2.20;;;;;;;19.56;41.61;99955.34;5071293;28;20021;-60
2021/11/03 02:07:57;;;;;;;3.60;2.17;;;;;;;19.55;41.47;99957.16;5071218;28;20074;-60
2021/11/03 02:10:23;;;;;;;4.95;2.33;;;;;;;19.54;41.37;99952.03;5071980;28;20031;-60
2021/11/03 02:12:48;;;;;;;3.90;2.28;;;;;;;19.52;41.32;99954.84;5072091;28;20489;-61
2021/11/03 02:15:15;;;;;;;4.10;2.45;;;;;;;19.52;41.53;99954.00;5070785;28;20024;-60
2021/11/03 02:17:41;;;;;;;3.90;2.25;;;;;;;19.51;41.38;99947.88;5072048;28;20133;-59
2021/11/03 02:20:11;;;;;;;4.32;2.33;;;;;;;19.50;41.35;99946.25;5071409;28;20379;-60
2021/11/03 02:23:03;;;;;;;4.20;2.25;;;;;;;19.50;41.47;99950.69;5070820;28;20186;-60
2021/11/03 02:25:34;;;;;;;4.22;2.10;;;;;;;19.49;41.24;99949.03;5071817;28;20026;-60
2021/11/03 02:28:03;;;;;;;4.38;2.22;;;;;;;19.47;41.41;99946.56;5071554;28;20388;-59
2021/11/03 02:30:29;;;;;;;4.07;2.28;;;;;;;19.47;41.05;99945.69;5070843;28;20093;-59
2021/11/03 02:32:59;;;;;;;3.78;2.40;;;;;;;19.45;41.06;99947.69;5071785;28;20032;-60
2021/11/03 02:35:24;;;;;;;5.70;2.45;;;;;;;19.44;41.29;99949.50;5071859;28;20031;-60
2021/11/03 02:37:53;;;;;;;3.83;2.20;;;;;;;19.43;41.19;99945.19;5071095;28;20028;-60
2021/11/03 02:40:39;;;;;;;3.85;2.00;;;;;;;19.42;41.07;99946.16;5071098;28;20024;-59
2021/11/03 02:43:20;;;;;;;4.20;2.40;;;;;;;19.42;41.00;99948.81;5070693;28;20040;-59
2021/11/03 02:45:53;;;;;;;3.55;1.85;;;;;;;19.42;41.14;99942.69;5071877;28;20112;-59
2021/11/03 02:48:19;;;;;;;4.30;2.17;;;;;;;19.40;40.97;99943.66;5070753;28;20032;-60
2021/11/03 02:50:59;;;;;;;4.22;2.10;;;;;;;19.39;41.24;99946.47;5070815;28;20028;-59
2021/11/03 02:53:26;;;;;;;4.63;2.05;;;;;;;19.38;41.12;99942.19;5071633;28;20027;-59
2021/11/03 02:55:52;;;;;;;4.32;2.10;;;;;;;19.38;41.10;99947.47;5071438;28;20179;-59
2021/11/03 02:58:18;;;;;;;6.57;2.58;;;;;;;19.37;40.86;99945.81;5070561;28;20107;-59
2021/11/03 03:00:44;;;;;;;3.33;1.77;;;;;;;19.38;41.01;99953.56;5071478;28;20036;-59
2021/11/03 03:03:10;;;;;;;3.80;2.20;;;;;;;19.42;41.40;99948.81;5071049;28;20365;-60
2021/11/03 03:05:35;;;;;;;4.78;2.00;;;;;;;19.47;41.33;99951.84;5070921;28;20074;-61
2021/11/03 03:08:01;;;;;;;3.95;1.90;;;;;;;19.52;41.11;99949.53;5071038;28;20016;-60
2021/11/03 03:10:26;;;;;;;3.33;1.95;;;;;;;19.55;40.89;99954.53;5071624;28;20029;-60
2021/11/03 03:12:51;;;;;;;3.70;2.00;;;;;;;19.58;40.54;99956.84;5070685;28;20372;-60
2021/11/03 03:15:17;;;;;;;3.27;1.83;;;;;;;19.62;40.44;99962.66;5071936;28;20488;-59
2021/11/03 03:17:42;;;;;;;3.88;2.00;;;;;;;19.65;40.57;99964.16;5074984;28;20276;-60
2021/11/03 03:20:14;;;;;;;3.35;1.80;;;;;;;19.67;40.22;99959.53;5074088;28;20083;-60
2021/11/03 03:22:39;;;;;;;3.63;2.15;;;;;;;19.68;40.40;99958.56;5074576;28;20554;-60
2021/11/03 03:25:05;;;;;;;3.55;1.95;;;;;;;19.68;40.25;99956.75;5074151;28;20033;-60
2021/11/03 03:27:30;;;;;;;7.22;2.13;;;;;;;19.67;40.20;99964.84;5075108;28;20531;-59
2021/11/03 03:29:56;;;;;;;4.38;1.83;;;;;;;19.67;40.43;99960.38;5074783;28;20399;-58
2021/11/03 03:32:23;;;;;;;4.30;2.10;;;;;;;19.69;40.03;99957.56;5073933;28;20373;-58
2021/11/03 03:34:51;;;;;;;3.60;2.08;;;;;;;19.68;40.37;99954.09;5074994;28;20021;-61
2021/11/03 03:37:17;;;;;;;3.47;1.90;;;;;;;19.70;40.13;99952.13;5074539;28;20036;-60
2021/11/03 03:39:42;;;;;;;5.68;2.30;;;;;;;19.69;40.14;99952.28;5073972;28;20037;-60
2021/11/03 03:42:11;;;;;;;3.63;1.85;;;;;;;19.68;39.93;99955.94;5074202;28;20040;-59
2021/11/03 03:44:38;;;;;;;4.20;2.17;;;;;;;19.68;40.19;99953.28;5074526;28;20021;-58
2021/11/03 03:47:04;;;;;;;3.30;1.98;;;;;;;19.66;39.95;99953.44;5073460;28;20027;-59
2021/11/03 03:49:29;;;;;;;3.75;2.10;;;;;;;19.65;40.26;99953.59;5074723;28;20183;-59
2021/11/03 03:52:18;;;;;;;3.55;1.70;;;;;;;19.65;39.79;99962.34;5074566;28;20070;-59
2021/11/03 03:54:43;;;;;;;4.88;2.08;;;;;;;19.65;40.22;99966.81;5070467;28;20052;-60
2021/11/03 03:57:09;;;;;;;3.38;1.75;;;;;;;19.64;40.02;99967.78;5074080;28;20372;-59
2021/11/03 03:59:34;;;;;;;3.22;1.85;;;;;;;19.65;39.95;99967.63;5074173;28;20616;-59
2021/11/03 04:02:02;;;;;;;3.63;2.00;;;;;;;19.69;40.27;99957.56;5073293;28;20070;-59
2021/11/03 04:04:27;;;;;;;3.85;1.95;;;;;;;19.72;40.05;99966.00;5074248;28;20024;-60
2021/11/03 04:06:53;;;;;;;3.10;1.73;;;;;;;19.73;39.91;99967.69;5074246;28;20115;-59
2021/11/03 04:09:18;;;;;;;3.80;1.90;;;;;;;19.75;39.81;99965.69;5072960;28;20307;-60
2021/11/03 04:11:46;;;;;;;3.92;2.15;;;;;;;19.74;39.84;99976.44;5074020;28;20051;-60
2021/11/03 04:14:11;;;;;;;3.97;2.00;;;;;;;19.74;39.78;99979.06;5072847;28;20111;-60
2021/11/03 04:16:37;;;;;;;3.70;1.85;;;;;;;19.75;39.85;99986.03;5074054;28;20112;-59
2021/11/03 04:19:03;;;;;;;3.95;2.15;;;;;;;19.75;39.58;99991.31;5073704;28;20024;-60
2021/11/03 04:21:28;;;;;;;4.25;1.90;;;;;;;19.76;39.55;99987.72;5073208;28;20139;-60
2021/11/03 04:23:54;;;;;;;3.25;1.70;;;;;;;19.74;39.72;99992.28;5073752;28;20434;-60
2021/11/03 04:26:27;;;;;;;3.17;1.77;;;;;;;19.73;39.75;99985.34;5073442;28;20033;-59
2021/11/03 04:28:52;;;;;;;3.22;1.67;;;;;;;19.73;39.74;99996.75;5072460;28;20028;-59
2021/11/03 04:31:18;;;;;;;3.53;1.90;;;;;;;19.71;39.60;99995.25;5073591;28;20027;-60
2021/11/03 04:33:43;;;;;;;2.92;1.80;;;;;;;19.70;39.84;99996.25;5073402;28;20032;-60
2021/11/03 04:36:09;;;;;;;3.87;1.90;;;;;;;19.69;39.73;99992.78;5072533;28;20020;-59
2021/11/03 04:38:34;;;;;;;4.63;1.92;;;;;;;19.68;39.54;99990.28;5073796;28;20364;-59
2021/11/03 04:41:00;;;;;;;3.10;1.53;;;;;;;19.67;39.79;99989.44;5072920;28;20384;-59
2021/11/03 04:43:28;;;;;;;3.67;1.92;;;;;;;19.70;39.58;99990.97;5072790;28;20305;-59
2021/11/03 04:45:53;;;;;;;3.30;1.90;;;;;;;19.66;39.54;99989.59;5073308;28;20490;-60
2021/11/03 04:48:18;;;;;;;3.65;2.10;;;;;;;19.64;39.48;99992.41;5073226;28;20037;-59
2021/11/03 04:50:44;;;;;;;3.08;1.67;;;;;;;19.66;39.83;99997.53;5072473;28;20028;-60
2021/11/03 04:53:09;;;;;;;4.40;1.80;;;;;;;19.66;39.76;99992.25;5072783;28;20048;-59
2021/11/03 04:55:34;;;;;;;3.45;1.90;;;;;;;19.69;39.79;99998.06;5072814;28;20052;-59
2021/11/03 04:58:00;;;;;;;3.42;1.85;;;;;;;19.71;39.49;99997.88;5071789;28;20193;-59
2021/11/03 05:00:28;;;;;;;3.85;2.00;;;;;;;19.71;39.62;99990.81;5073363;28;20020;-60
2021/11/03 05:02:54;;;;;;;3.97;2.03;;;;;;;19.72;39.66;99988.97;5073263;28;20032;-60
2021/11/03 05:05:21;;;;;;;3.80;1.92;;;;;;;19.72;39.49;99991.63;5072197;28;20028;-59
2021/11/03 05:07:47;;;;;;;3.40;1.73;;;;;;;19.71;39.33;100000.53;5073230;28;20410;-59
2021/11/03 05:10:14;;;;;;;4.93;2.03;;;;;;;19.72;39.49;100002.19;5072740;28;20467;-59
2021/11/03 05:12:40;;;;;;;3.75;1.80;;;;;;;19.72;39.49;100000.38;5072263;28;20388;-60
2021/11/03 05:15:06;;;;;;;3.55;1.98;;;;;;;19.72;39.59;99999.56;5072863;28;20016;-59
2021/11/03 05:17:31;;;;;;;3.55;1.70;;;;;;;19.70;39.58;99999.72;5072404;28;20016;-59
2021/11/03 05:19:57;;;;;;;3.42;1.63;;;;;;;19.70;39.52;99993.59;5072504;28;20029;-60
2021/11/03 05:22:25;;;;;;;3.70;2.00;;;;;;;19.68;39.58;99999.03;5072921;28;20032;-60
2021/11/03 05:24:51;;;;;;;3.28;1.60;;;;;;;19.68;39.19;99996.41;5071448;28;20052;-60
2021/11/03 05:27:17;;;;;;;3.10;1.77;;;;;;;19.65;39.46;100001.19;5072307;28;20426;-59
2021/11/03 05:29:42;;;;;;;3.80;1.83;;;;;;;19.64;39.39;99999.50;5072857;28;20078;-59
2021/11/03 05:32:10;;;;;;;2.72;1.52;;;;;;;19.64;39.29;99994.22;5071701;28;20055;-60
2021/11/03 05:34:35;;;;;;;4.68;2.00;;;;;;;19.64;39.52;99987.09;5072808;28;20020;-59
2021/11/03 05:37:01;;;;;;;4.55;1.55;;;;;;;19.64;39.34;99991.56;5072367;28;20107;-60
2021/11/03 05:39:26;;;;;;;3.70;1.90;;;;;;;19.65;39.43;99993.25;5071532;28;20203;-60
2021/11/03 05:41:55;;;;;;;3.10;1.70;;;;;;;19.62;39.42;99989.09;5072677;28;20110;-60
2021/11/03 05:44:20;;;;;;;3.92;1.90;;;;;;;19.62;39.24;99993.56;5072521;28;20103;-60
2021/11/03 05:46:51;;;;;;;2.83;1.70;;;;;;;19.61;39.69;99991.88;5071784;28;20112;-59
2021/11/03 05:49:18;;;;;;;3.63;1.80;;;;;;;19.63;39.64;99995.19;5072254;28;20044;-58
2021/11/03 05:51:46;;;;;;;3.75;1.75;;;;;;;19.63;39.61;99985.47;5072178;28;20064;-59
2021/11/03 05:54:13;;;;;;;3.85;1.83;;;;;;;19.65;39.47;99986.13;5071109;28;20389;-59
2021/11/03 05:56:38;;;;;;;3.13;1.60;;;;;;;19.69;39.46;99989.28;5072570;28;20112;-59
2021/11/03 05:59:05;;;;;;;3.47;1.70;;;;;;;19.70;39.47;99977.75;5071611;28;20127;-60
2021/11/03 06:01:31;;;;;;;3.88;1.65;;;;;;;19.69;39.45;99981.34;5071465;28;20429;-59
2021/11/03 06:03:56;;;;;;;3.60;1.70;;;;;;;19.70;39.32;99975.09;5072297;28;20032;-59
2021/11/03 06:06:23;;;;;;;2.85;1.70;;;;;;;19.70;39.36;99980.38;5072208;28;20016;-59
2021/11/03 06:08:49;;;;;;;3.97;2.15;;;;;;;19.69;39.24;99984.00;5071414;28;20162;-60
2021/11/03 06:11:16;;;;;;;3.90;1.80;;;;;;;19.68;39.18;99979.72;5072182;28;20035;-60
2021/11/03 06:13:42;;;;;;;3.00;1.65;;;;;;;19.65;39.49;99975.56;5071512;28;20468;-60
2021/11/03 06:16:11;;;;;;;3.80;1.52;;;;;;;19.67;39.12;99988.63;5071837;28;20028;-60
2021/11/03 06:18:36;;;;;;;4.38;1.60;;;;;;;19.67;39.45;99978.06;5072031;28;20025;-60
2021/11/03 06:21:02;;;;;;;2.92;1.65;;;;;;;19.70;39.45;99981.19;5070686;28;20729;-60
2021/11/03 06:23:31;;;;;;;2.92;1.50;;;;;;;19.79;40.09;99995.34;5072224;28;20029;-60
2021/11/03 06:25:56;;;;;;;3.53;1.90;;;;;;;19.87;40.69;99984.00;5071777;28;20036;-59
2021/11/03 06:28:22;;;;;;;3.45;1.80;;;;;;;19.93;41.07;99989.47;5071258;28;20020;-60
2021/11/03 06:30:48;;;;;;;3.65;1.75;;;;;;;20.00;40.88;99992.31;5072091;28;20416;-61
2021/11/03 06:33:13;;;;;;;4.00;1.83;;;;;;;20.05;41.20;99990.03;5071557;28;20116;-60
2021/11/03 06:35:40;;;;;;;3.42;1.70;;;;;;;20.12;41.45;99995.50;5071051;28;20112;-61
2021/11/03 06:38:07;;;;;;;3.30;1.58;;;;;;;20.20;41.08;99992.06;5071451;28;20029;-60
2021/11/03 06:40:33;;;;;;;2.67;1.42;;;;;;;20.27;40.94;99998.41;5071858;28;20040;-60
2021/11/03 06:42:59;;;;;;;3.28;1.52;;;;;;;20.32;41.17;99996.09;5070866;28;20082;-60
2021/11/03 06:45:25;;;;;;;3.47;1.50;;;;;;;20.36;41.27;99996.59;5071869;28;20033;-59
2021/11/03 06:47:50;;;;;;;3.03;1.58;;;;;;;20.39;40.84;100002.41;5071766;28;20012;-60
2021/11/03 06:50:20;;;;;;;3.38;1.60;;;;;;;20.41;40.88;99999.59;5071089;28;20036;-60
2021/11/03 06:52:47;;;;;;;3.08;1.70;;;;;;;20.43;40.88;99995.81;5075931;28;20021;-60
2021/11/03 06:55:14;;;;;;;4.25;1.50;;;;;;;20.43;40.97;99998.44;5075080;28;20060;-60
2021/11/03 06:57:39;;;;;;;3.05;1.30;;;;;;;20.45;40.89;100006.22;5075014;28;20038;-59
2021/11/03 07:00:08;;;;;;;2.97;1.50;;;;;;;20.49;40.67;99994.34;5075265;28;20024;-60
2021/11/03 07:02:33;;;;;;;2.80;1.50;;;;;;;20.53;40.61;99998.31;5075408;28;20028;-59
2021/11/03 07:04:59;;;;;;;3.00;1.65;;;;;;;20.56;40.71;100000.63;5074603;28;20067;-60
2021/11/03 07:07:24;;;;;;;2.97;1.47;;;;;;;20.60;40.53;99998.50;5075678;28;20021;-60
2021/11/03 07:09:49;;;;;;;3.60;1.90;;;;;;;20.63;40.65;99998.16;5075536;28;20269;-60
2021/11/03 07:12:14;;;;;;;5.20;1.83;;;;;;;20.67;40.77;99993.44;5074505;28;20377;-60
2021/11/03 07:14:40;;;;;;;3.25;1.60;;;;;;;20.69;40.46;99997.56;5075335;28;20277;-59
2021/11/03 07:17:11;;;;;;;2.88;1.40;;;;;;;20.70;40.42;99996.59;5074229;28;20028;-59
2021/11/03 07:19:36;;;;;;;3.15;1.42;;;;;;;20.71;40.34;99997.41;5075181;28;20090;-59
2021/11/03 07:22:01;;;;;;;3.28;1.58;;;;;;;20.73;40.20;99998.06;5075109;28;20464;-59
2021/11/03 07:24:26;;;;;;;3.25;1.75;;;;;;;20.68;38.03;100003.00;5074767;28;20024;-59
2021/11/03 07:26:52;;;;;;;5.00;2.20;;;;;;;20.63;38.88;99998.16;5075207;28;20215;-59
2021/11/03 07:29:17;;;;;;;3.70;1.70;;;;;;;20.63;39.73;100000.81;5074802;28;20289;-60
2021/11/03 07:31:42;;;;;;;3.27;1.70;;;;;;;20.64;39.99;99991.94;5074256;28;20024;-60
2021/11/03 07:34:07;;;;;;;3.00;1.50;;;;;;;20.68;40.13;100000.38;5074627;28;20277;-60
2021/11/03 07:36:33;;;;;;;3.78;1.67;;;;;;;20.67;40.16;99996.09;5075056;28;20811;-60
2021/11/03 07:38:59;;;;;;;4.32;1.42;;;;;;;20.63;40.35;100000.81;5074094;28;20024;-60
2021/11/03 07:41:25;;;;;;;3.90;1.65;;;;;;;20.67;40.42;99994.25;5074825;28;20459;-60
2021/11/03 07:43:53;;;;;;;3.28;1.65;;;;;;;20.68;39.79;99993.28;5074853;28;20048;-59
2021/11/03 07:46:19;;;;;;;5.28;1.58;;;;;;;20.71;40.09;99994.75;5073723;28;20059;-61
2021/11/03 07:48:44;;;;;;;4.30;1.85;;;;;;;20.74;40.12;99997.91;5074769;28;20032;-60
2021/11/03 07:51:15;;;;;;;4.07;1.98;;;;;;;20.73;40.07;99998.91;5074592;28;20027;-62
2021/11/03 07:53:45;;;;;;;3.30;1.70;;;;;;;20.72;40.15;99999.88;5073932;28;20070;-63
2021/11/03 07:56:14;;;;;;;3.42;1.90;;;;;;;20.75;40.49;99996.91;5074169;28;20041;-62
2021/11/03 07:58:42;;;;;;;4.22;1.75;;;;;;;20.81;40.26;100000.75;5074760;28;20517;-61
2021/11/03 08:01:09;;;;;;;3.10;1.83;;;;;;;20.85;40.24;100010.00;5073277;28;20036;-62
2021/11/03 08:03:35;;;;;;;4.70;1.88;;;;;;;20.87;40.28;100015.13;5073725;28;20021;-61
2021/11/03 08:06:01;;;;;;;3.60;1.60;;;;;;;20.87;40.32;100009.84;5074285;28;20104;-63
2021/11/03 08:08:31;;;;;;;4.43;1.60;;;;;;;20.87;40.54;100015.13;5073761;28;20100;-61
2021/11/03 08:10:57;;;;;;;2.83;1.35;;;;;;;20.87;40.85;100013.34;5073917;28;20090;-60
2021/11/03 08:13:26;;;;;;;4.53;1.75;;;;;;;20.89;40.66;100008.69;5073668;28;20430;-61
2021/11/03 08:15:54;;;;;;;3.38;1.70;;;;;;;20.92;40.48;100012.81;5074529;28;20031;-60
2021/11/03 08:18:23;;;;;;;3.10;1.52;;;;;;;20.95;40.33;100005.41;5074063;28;20120;-60
2021/11/03 08:20:49;;;;;;;3.38;1.58;;;;;;;20.90;40.82;100006.88;5073496;28;20028;-60
2021/11/03 08:23:15;;;;;;;2.88;1.48;;;;;;;20.83;40.76;100004.88;5073922;28;20020;-60
2021/11/03 08:25:41;;;;;;;3.15;1.55;;;;;;;20.79;40.98;100002.72;5074030;28;20060;-60
2021/11/03 08:28:07;;;;;;;5.05;1.63;;;;;;;20.80;41.23;100009.66;5072848;28;20353;-61
2021/11/03 08:30:33;;;;;;;4.00;1.55;;;;;;;20.81;41.03;100009.50;5074190;28;20069;-61
2021/11/03 08:33:07;;;;;;;3.20;1.50;;;;;;;20.86;41.12;100008.22;5073707;28;20392;-60
2021/11/03 08:35:35;;;;;;;2.95;1.52;;;;;;;20.89;40.90;100014.00;5073362;28;20100;-61
2021/11/03 08:38:04;;;;;;;2.80;1.30;;;;;;;20.93;40.83;100020.59;5073626;28;20460;-63
2021/11/03 08:40:32;;;;;;;3.88;1.70;;;;;;;20.93;40.74;100017.97;5076988;28;20067;-63
2021/11/03 08:43:00;;;;;;;3.33;1.67;;;;;;;20.94;40.76;100024.09;5073397;28;20025;-62
2021/11/03 08:45:29;;;;;;;4.20;1.63;;;;;;;21.02;40.38;100030.22;5074412;28;20127;-63
2021/11/03 08:47:54;;;;;;;3.58;1.70;;;;;;;21.15;39.93;100028.94;5074363;28;20032;-63
2021/11/03 08:50:26;;;;;;;3.50;1.50;;;;;;;21.26;39.78;100030.44;5073433;28;20476;-64
2021/11/03 08:52:52;;;;;;;3.65;1.63;;;;;;;21.36;39.53;100034.59;5074279;28;20021;-62
2021/11/03 08:55:19;;;;;;;3.08;1.63;;;;;;;21.43;39.34;100034.75;5073562;28;20072;-62
2021/11/03 08:57:44;;;;;;;3.75;1.60;;;;;;;21.50;39.15;100033.09;5073550;28;20029;-61
2021/11/03 09:00:14;;;;;;;2.92;1.50;;;;;;;21.55;39.00;100040.56;5073213;28;20031;-64
2021/11/03 09:02:39;;;;;;;4.13;1.70;;;;;;;21.59;38.96;100041.91;5072784;28;20043;-61
2021/11/03 09:05:05;;;;;;;3.45;1.48;;;;;;;21.63;38.44;100037.06;5073712;28;20017;-63
2021/11/03 09:07:32;;;;;;;3.45;1.50;;;;;;;21.66;38.57;100044.69;5073477;28;20099;-62
2021/11/03 09:09:58;;;;;;;3.45;1.40;;;;;;;21.68;38.46;100040.06;5072847;28;20055;-62
2021/11/03 09:12:24;;;;;;;4.18;1.60;;;;;;;21.68;38.41;100035.59;5074989;28;20036;-62
2021/11/03 09:14:49;;;;;;;3.33;1.40;;;;;;;21.65;38.63;100041.22;5073599;28;20027;-60
2021/11/03 09:17:14;;;;;;;3.72;1.52;;;;;;;21.63;38.73;100045.84;5072806;28;20068;-62
2021/11/03 09:19:41;;;;;;;3.80;1.52;;;;;;;21.62;38.62;100046.88;5073824;28;20471;-61
2021/11/03 09:22:09;;;;;;;3.67;1.65;;;;;;;21.60;38.77;100046.19;5073186;28;20032;-61
2021/11/03 09:24:47;;;;;;;3.83;1.58;;;;;;;21.59;38.82;100041.03;5072696;28;20380;-62
2021/11/03 09:27:14;;;;;;;5.20;1.95;;;;;;;21.56;38.20;100037.75;5073436;28;20033;-61
2021/11/03 09:29:50;;;;;;;4.78;1.90;;;;;;;21.55;38.64;100045.88;5072843;28;20441;-63
2021/11/03 09:32:21;;;;;;;4.50;1.60;;;;;;;21.55;38.77;100048.50;5073236;28;20344;-61
2021/11/03 09:34:48;;;;;;;4.63;1.63;;;;;;;21.54;38.81;100046.88;5073544;28;20031;-61
2021/11/03 09:37:20;;;;;;;4.30;1.63;;;;;;;21.51;38.95;100042.72;5072621;28;20063;-61
2021/11/03 09:39:47;;;;;;;3.97;1.60;;;;;;;21.50;39.01;100041.06;5072500;28;20065;-61
2021/11/03 09:42:15;;;;;;;4.00;1.90;;;;;;;21.52;38.75;100039.09;5074137;28;20150;-62
2021/11/03 09:44:43;;;;;;;3.75;1.80;;;;;;;21.56;38.74;100031.63;5074179;28;20062;-62
2021/11/03 09:47:26;;;;;;;4.85;1.73;;;;;;;21.57;38.98;100038.59;5073923;28;20028;-62
2021/11/03 09:49:58;;;;;;;6.53;2.10;;;;;;;21.58;39.00;100044.72;5073306;28;20077;-59
2021/11/03 09:52:29;;;;;;;4.78;1.80;;;;;;;21.61;38.90;100033.78;5072297;28;20028;-60
2021/11/03 09:55:19;;;;;;;4.68;1.80;;;;;;;21.61;38.87;100034.59;5073013;28;20091;-61
2021/11/03 09:57:46;;;;;;;3.63;1.80;;;;;;;21.64;38.82;100041.41;5073434;28;20017;-61
2021/11/03 10:00:34;;;;;;;3.95;1.88;;;;;;;21.65;38.80;100035.94;5072360;28;20124;-63
2021/11/03 10:03:25;;;;;;;4.22;1.80;;;;;;;21.66;38.66;100042.88;5072816;28;20086;-61
2021/11/03 10:06:01;;;;;;;3.70;1.77;;;;;;;21.64;38.83;100050.16;5071987;28;20406;-60
2021/11/03 10:08:29;;;;;;;3.85;1.83;;;;;;;21.64;38.89;100050.16;5073321;28;20030;-60
2021/11/03 10:10:56;;;;;;;5.75;2.30;;;;;;;21.63;38.91;100048.50;5073540;28;20463;-60
2021/11/03 10:13:27;;;;;;;4.60;2.55;;;;;;;21.64;38.74;100050.16;5073730;28;20051;-61
2021/11/03 10:16:10;;;;;;;3.83;1.77;;;;;;;21.64;38.92;100054.66;5074196;28;20035;-61
2021/11/03 10:19:21;;;;;;;5.75;1.80;;;;;;;21.61;38.94;100058.47;5073133;28;20024;-60
2021/11/03 10:22:00;;;;;;;3.30;1.80;;;;;;;21.58;39.06;100058.78;5073810;28;20028;-60
2021/11/03 10:24:31;;;;;;;3.40;1.65;;;;;;;21.55;39.04;100059.97;5073620;28;20023;-60
2021/11/03 10:27:10;;;;;;;5.22;1.90;;;;;;;21.54;39.00;100054.81;5073351;28;20051;-60
2021/11/03 10:29:37;;;;;;;3.63;1.60;;;;;;;21.51;39.36;100058.63;5072808;28;20040;-60
2021/11/03 10:32:20;;;;;;;3.72;1.73;;;;;;;21.46;39.23;100058.28;5072319;28;20028;-61
2021/11/03 10:35:08;;;;;;;3.78;1.45;;;;;;;21.46;39.36;100057.44;5072037;28;20048;-61
2021/11/03 10:37:43;;;;;;;3.95;1.70;;;;;;;21.50;39.42;100056.16;5072980;28;20024;-60
2021/11/03 10:40:09;;;;;;;3.92;1.80;;;;;;;21.53;39.46;100064.59;5073225;28;20030;-60
2021/11/03 10:42:41;;;;;;;4.93;1.90;;;;;;;21.55;39.16;100059.13;5072581;28;20029;-59
2021/11/03 10:45:15;;;;;;;4.38;1.60;;;;;;;21.58;39.15;100058.78;5073527;28;20054;-61
2021/11/03 10:47:55;;;;;;;4.35;1.80;;;;;;;21.60;39.08;100056.78;5073854;28;20461;-61
2021/11/03 10:50:38;;;;;;;3.67;1.70;;;;;;;21.63;39.02;100053.00;5071607;28;20111;-61
2021/11/03 10:53:12;;;;;;;3.85;1.65;;;;;;;21.60;39.18;100051.50;5071637;28;20111;-59
2021/11/03 10:55:40;;;;;;;4.30;1.67;;;;;;;21.55;39.52;100056.47;5071311;28;20048;-59
2021/11/03 10:58:11;;;;;;;4.50;2.05;;;;;;;21.48;39.44;100052.81;5071414;28;20031;-61
2021/11/03 11:00:53;;;;;;;4.38;1.70;;;;;;;21.41;39.49;100049.97;5072411;28;20040;-63
2021/11/03 11:03:21;;;;;;;3.35;1.85;;;;;;;21.45;39.49;100048.66;5072186;28;20395;-62
2021/11/03 11:05:55;;;;;;;4.20;1.80;;;;;;;21.50;39.42;100048.19;5072573;28;20115;-62
2021/11/03 11:08:26;;;;;;;3.92;1.92;;;;;;;21.52;39.42;100047.03;5072497;28;20025;-62
2021/11/03 11:11:01;;;;;;;3.78;1.70;;;;;;;21.54;39.14;100045.03;5072897;28;20442;-62
2021/11/03 11:13:31;;;;;;;6.75;1.90;;;;;;;21.59;39.39;100046.34;5073071;28;20086;-62
2021/11/03 11:16:33;;;;;;;3.63;1.73;;;;;;;21.59;39.29;100046.34;5072097;28;20116;-59
2021/11/03 11:19:21;;;;;;;3.28;1.60;;;;;;;21.45;39.76;100047.84;5058166;28;20488;-61
2021/11/03 11:22:00;;;;;;;4.60;1.73;;;;;;;21.26;40.34;100038.38;5071901;28;20394;-62
2021/11/03 11:24:50;;;;;;;4.60;1.80;;;;;;;21.15;40.38;100029.75;5071073;28;20094;-62
2021/11/03 11:27:26;;;;;;;3.15;1.52;;;;;;;21.13;40.65;100038.88;5071285;28;20028;-60
2021/11/03 11:30:16;;;;;;;4.75;1.77;;;;;;;21.11;40.55;100040.84;5071922;28;20112;-61
2021/11/03 11:33:02;;;;;;;3.50;1.83;;;;;;;21.08;40.56;100042.00;5071785;28;20025;-61
2021/11/03 11:35:43;;;;;;;5.03;1.85;;;;;;;21.07;40.61;100040.34;5071603;28;20428;-60
2021/11/03 11:38:44;;;;;;;4.90;1.60;;;;;;;21.06;40.76;100041.34;5074018;28;20028;-61